Strona główna
METAR-TAF:

METAR-TAF

Lotnisko :

Port lotniczy Pointe-à-Pitre

Pointe-à-Pitre, Gwadelupa

Szerokość geograficzna: 16-16N, Długość geograficzna: 061-31W, wysokość: 11 m

Aktualna obserwacja pogody

Raport powstał 27 minut temu, godzina 00:00 UTC
Wiatr 8 kt od wschód
Temperatura 28°C
Wilgotność 79%
Ciśnienie 1015 hPa
Widzialność: 9000 m
Rozproszone chmury na wysokości 2200 ft
Zachmurzenie całkowite na wysokości 3000 ft

METAR: TFFR 200000Z AUTO 10008KT 9000 SCT022 OVC030 28/24 Q1015 NOSIG

czas: 20:27 (00:27 UTC)

Prognoza

Raport powstał 1 godzina i 27 minut temu, godzina 23:00 UTC
Prognoza ważna od 20 godzina 00 UTC do 20 godzina 24 UTC
Wiatr 10 kt od wschodnio-południowy wschód
Widzialność 10 km lub więcej
Rozproszone chmury na wysokości 2500 ft

TAF: TFFR 192300Z 2000/2024 12010KT 9999 SCT025

Obserwacja i prognoza pogody dla ponad 4000 lotnisk (raport METAR i TAF).

Dostępne stacje oznaczono żółtymi i czerwonymi punktami na mapie.

Najedź kursorem aby zobaczyć nazwę stacji.

Kliknij aby zobaczyć obserwacje i prognozy pogody.

Aby zmienić mapę: kliknij na zielony przycisk z czarnym krzyżykiem, aby powiększyć; na zielony przycisk z myślnikiem, aby pomniejszyć; na zielone strzałki, aby przejść do map sąsiednich.


METAR-TAF: